sensor_id;sensor_type;location;lat;lon;timestamp;P1;durP1;ratioP1;P2;durP2;ratioP2
14754;SDS011;7469;50.906;6.952;2023-04-25T00:01:48;6.70;;;2.53;;
14754;SDS011;7469;50.906;6.952;2023-04-25T00:04:17;9.90;;;3.03;;
14754;SDS011;7469;50.906;6.952;2023-04-25T00:06:45;6.23;;;2.73;;
14754;SDS011;7469;50.906;6.952;2023-04-25T00:09:13;10.13;;;2.60;;
14754;SDS011;7469;50.906;6.952;2023-04-25T00:11:41;8.30;;;2.77;;
14754;SDS011;7469;50.906;6.952;2023-04-25T00:14:10;5.17;;;2.60;;
14754;SDS011;7469;50.906;6.952;2023-04-25T00:16:38;8.77;;;2.90;;
14754;SDS011;7469;50.906;6.952;2023-04-25T00:19:08;5.17;;;2.80;;
14754;SDS011;7469;50.906;6.952;2023-04-25T00:21:37;4.77;;;2.47;;
14754;SDS011;7469;50.906;6.952;2023-04-25T00:24:06;6.17;;;2.53;;
14754;SDS011;7469;50.906;6.952;2023-04-25T00:26:35;5.07;;;2.30;;
14754;SDS011;7469;50.906;6.952;2023-04-25T00:29:03;8.13;;;2.70;;
14754;SDS011;7469;50.906;6.952;2023-04-25T00:31:31;7.73;;;2.90;;
14754;SDS011;7469;50.906;6.952;2023-04-25T00:33:59;9.00;;;3.10;;
14754;SDS011;7469;50.906;6.952;2023-04-25T00:36:28;9.57;;;2.77;;
14754;SDS011;7469;50.906;6.952;2023-04-25T00:38:56;8.33;;;2.80;;
14754;SDS011;7469;50.906;6.952;2023-04-25T00:41:25;8.97;;;2.80;;
14754;SDS011;7469;50.906;6.952;2023-04-25T00:43:53;9.07;;;3.40;;
14754;SDS011;7469;50.906;6.952;2023-04-25T00:46:23;7.13;;;2.73;;
14754;SDS011;7469;50.906;6.952;2023-04-25T00:48:51;13.10;;;3.13;;
14754;SDS011;7469;50.906;6.952;2023-04-25T00:51:19;11.27;;;3.07;;
14754;SDS011;7469;50.906;6.952;2023-04-25T00:53:50;6.90;;;3.23;;
14754;SDS011;7469;50.906;6.952;2023-04-25T00:56:19;9.07;;;3.00;;
14754;SDS011;7469;50.906;6.952;2023-04-25T00:58:48;8.70;;;2.97;;
14754;SDS011;7469;50.906;6.952;2023-04-25T01:01:17;8.00;;;2.80;;
14754;SDS011;7469;50.906;6.952;2023-04-25T01:03:46;5.03;;;2.93;;
14754;SDS011;7469;50.906;6.952;2023-04-25T01:06:17;8.97;;;3.00;;
14754;SDS011;7469;50.906;6.952;2023-04-25T01:08:45;11.17;;;3.10;;
14754;SDS011;7469;50.906;6.952;2023-04-25T01:11:14;6.57;;;2.83;;
14754;SDS011;7469;50.906;6.952;2023-04-25T01:13:42;10.80;;;3.30;;
14754;SDS011;7469;50.906;6.952;2023-04-25T01:16:10;10.13;;;2.97;;
14754;SDS011;7469;50.906;6.952;2023-04-25T01:18:38;10.23;;;3.17;;
14754;SDS011;7469;50.906;6.952;2023-04-25T01:21:09;11.03;;;2.83;;
14754;SDS011;7469;50.906;6.952;2023-04-25T01:23:38;10.60;;;3.37;;
14754;SDS011;7469;50.906;6.952;2023-04-25T01:26:07;5.67;;;2.97;;
14754;SDS011;7469;50.906;6.952;2023-04-25T01:28:37;8.17;;;3.20;;
14754;SDS011;7469;50.906;6.952;2023-04-25T01:31:07;10.47;;;3.87;;
14754;SDS011;7469;50.906;6.952;2023-04-25T01:33:36;6.60;;;2.87;;
14754;SDS011;7469;50.906;6.952;2023-04-25T01:36:05;6.77;;;3.10;;
14754;SDS011;7469;50.906;6.952;2023-04-25T01:38:34;10.10;;;3.63;;
14754;SDS011;7469;50.906;6.952;2023-04-25T01:41:02;11.53;;;3.30;;
14754;SDS011;7469;50.906;6.952;2023-04-25T01:43:31;9.80;;;3.37;;
14754;SDS011;7469;50.906;6.952;2023-04-25T01:45:59;6.87;;;3.03;;
14754;SDS011;7469;50.906;6.952;2023-04-25T01:48:27;8.43;;;3.00;;
14754;SDS011;7469;50.906;6.952;2023-04-25T01:50:55;6.73;;;3.20;;
14754;SDS011;7469;50.906;6.952;2023-04-25T01:53:23;10.73;;;3.33;;
14754;SDS011;7469;50.906;6.952;2023-04-25T01:55:53;10.97;;;3.33;;
14754;SDS011;7469;50.906;6.952;2023-04-25T01:58:21;13.83;;;3.60;;
14754;SDS011;7469;50.906;6.952;2023-04-25T02:00:50;13.63;;;3.50;;
14754;SDS011;7469;50.906;6.952;2023-04-25T02:03:18;8.27;;;2.97;;
14754;SDS011;7469;50.906;6.952;2023-04-25T02:05:47;16.70;;;3.37;;
14754;SDS011;7469;50.906;6.952;2023-04-25T02:08:16;9.60;;;3.50;;
14754;SDS011;7469;50.906;6.952;2023-04-25T02:10:44;10.67;;;3.43;;
14754;SDS011;7469;50.906;6.952;2023-04-25T02:13:14;11.00;;;3.27;;
14754;SDS011;7469;50.906;6.952;2023-04-25T02:15:42;12.23;;;3.57;;
14754;SDS011;7469;50.906;6.952;2023-04-25T02:18:10;11.23;;;3.23;;
14754;SDS011;7469;50.906;6.952;2023-04-25T02:20:38;12.90;;;3.70;;
14754;SDS011;7469;50.906;6.952;2023-04-25T02:23:06;12.07;;;4.00;;
14754;SDS011;7469;50.906;6.952;2023-04-25T02:25:34;13.13;;;2.80;;
14754;SDS011;7469;50.906;6.952;2023-04-25T02:28:02;9.50;;;3.10;;
14754;SDS011;7469;50.906;6.952;2023-04-25T02:30:31;12.33;;;3.17;;
14754;SDS011;7469;50.906;6.952;2023-04-25T02:32:59;6.47;;;3.20;;
14754;SDS011;7469;50.906;6.952;2023-04-25T02:35:27;7.60;;;2.87;;
14754;SDS011;7469;50.906;6.952;2023-04-25T02:37:55;12.93;;;3.30;;
14754;SDS011;7469;50.906;6.952;2023-04-25T02:40:23;11.97;;;2.90;;
14754;SDS011;7469;50.906;6.952;2023-04-25T02:42:51;7.63;;;3.33;;
14754;SDS011;7469;50.906;6.952;2023-04-25T02:45:19;10.87;;;2.90;;
14754;SDS011;7469;50.906;6.952;2023-04-25T02:47:48;6.67;;;2.67;;
14754;SDS011;7469;50.906;6.952;2023-04-25T02:50:16;7.80;;;2.87;;
14754;SDS011;7469;50.906;6.952;2023-04-25T02:52:45;5.97;;;2.70;;
14754;SDS011;7469;50.906;6.952;2023-04-25T02:55:13;5.80;;;2.30;;
14754;SDS011;7469;50.906;6.952;2023-04-25T02:57:41;9.23;;;2.83;;
14754;SDS011;7469;50.906;6.952;2023-04-25T03:00:10;10.00;;;3.20;;
14754;SDS011;7469;50.906;6.952;2023-04-25T03:02:40;6.40;;;2.60;;
14754;SDS011;7469;50.906;6.952;2023-04-25T03:05:09;7.73;;;2.60;;
14754;SDS011;7469;50.906;6.952;2023-04-25T03:07:37;5.70;;;2.77;;
14754;SDS011;7469;50.906;6.952;2023-04-25T03:10:06;7.07;;;2.20;;
14754;SDS011;7469;50.906;6.952;2023-04-25T03:12:35;8.07;;;2.57;;
14754;SDS011;7469;50.906;6.952;2023-04-25T03:15:03;7.57;;;2.77;;
14754;SDS011;7469;50.906;6.952;2023-04-25T03:17:32;6.43;;;2.30;;
14754;SDS011;7469;50.906;6.952;2023-04-25T03:20:00;8.83;;;3.13;;
14754;SDS011;7469;50.906;6.952;2023-04-25T03:22:31;9.20;;;2.93;;
14754;SDS011;7469;50.906;6.952;2023-04-25T03:24:59;8.27;;;3.07;;
14754;SDS011;7469;50.906;6.952;2023-04-25T03:27:27;10.13;;;3.10;;
14754;SDS011;7469;50.906;6.952;2023-04-25T03:29:55;5.50;;;2.40;;
14754;SDS011;7469;50.906;6.952;2023-04-25T03:32:23;12.67;;;3.00;;
14754;SDS011;7469;50.906;6.952;2023-04-25T03:34:51;7.50;;;2.87;;
14754;SDS011;7469;50.906;6.952;2023-04-25T03:37:20;14.53;;;3.17;;
14754;SDS011;7469;50.906;6.952;2023-04-25T03:39:49;8.80;;;2.70;;
14754;SDS011;7469;50.906;6.952;2023-04-25T03:42:18;15.10;;;3.23;;
14754;SDS011;7469;50.906;6.952;2023-04-25T03:44:46;7.43;;;2.87;;
14754;SDS011;7469;50.906;6.952;2023-04-25T03:47:14;8.37;;;2.67;;
14754;SDS011;7469;50.906;6.952;2023-04-25T03:49:42;8.03;;;3.00;;
14754;SDS011;7469;50.906;6.952;2023-04-25T03:52:10;6.93;;;2.90;;
14754;SDS011;7469;50.906;6.952;2023-04-25T03:54:38;9.50;;;2.87;;
14754;SDS011;7469;50.906;6.952;2023-04-25T03:57:08;10.00;;;3.13;;
14754;SDS011;7469;50.906;6.952;2023-04-25T03:59:36;9.17;;;2.90;;
14754;SDS011;7469;50.906;6.952;2023-04-25T04:02:04;11.07;;;3.23;;
14754;SDS011;7469;50.906;6.952;2023-04-25T04:04:32;7.03;;;3.07;;
14754;SDS011;7469;50.906;6.952;2023-04-25T04:07:00;5.90;;;2.50;;
14754;SDS011;7469;50.906;6.952;2023-04-25T04:09:28;8.23;;;3.23;;
14754;SDS011;7469;50.906;6.952;2023-04-25T04:11:56;7.83;;;2.90;;
14754;SDS011;7469;50.906;6.952;2023-04-25T04:14:26;13.07;;;3.20;;
14754;SDS011;7469;50.906;6.952;2023-04-25T04:16:56;5.83;;;2.77;;
14754;SDS011;7469;50.906;6.952;2023-04-25T04:19:24;10.50;;;3.43;;
14754;SDS011;7469;50.906;6.952;2023-04-25T04:21:51;10.20;;;3.20;;
14754;SDS011;7469;50.906;6.952;2023-04-25T04:24:19;9.07;;;3.03;;
14754;SDS011;7469;50.906;6.952;2023-04-25T04:26:47;7.97;;;2.87;;
14754;SDS011;7469;50.906;6.952;2023-04-25T04:29:16;13.23;;;3.33;;
14754;SDS011;7469;50.906;6.952;2023-04-25T04:31:49;8.80;;;2.80;;
14754;SDS011;7469;50.906;6.952;2023-04-25T04:34:19;8.23;;;3.47;;
14754;SDS011;7469;50.906;6.952;2023-04-25T04:36:47;7.63;;;2.83;;
14754;SDS011;7469;50.906;6.952;2023-04-25T04:39:15;7.23;;;3.07;;
14754;SDS011;7469;50.906;6.952;2023-04-25T04:41:43;10.10;;;3.37;;
14754;SDS011;7469;50.906;6.952;2023-04-25T04:44:11;10.40;;;3.10;;
14754;SDS011;7469;50.906;6.952;2023-04-25T04:46:40;5.60;;;3.03;;
14754;SDS011;7469;50.906;6.952;2023-04-25T04:49:10;13.43;;;3.60;;
14754;SDS011;7469;50.906;6.952;2023-04-25T04:51:39;9.40;;;3.40;;
14754;SDS011;7469;50.906;6.952;2023-04-25T04:54:10;11.10;;;3.07;;
14754;SDS011;7469;50.906;6.952;2023-04-25T04:56:38;11.70;;;2.90;;
14754;SDS011;7469;50.906;6.952;2023-04-25T04:59:07;16.90;;;4.20;;
14754;SDS011;7469;50.906;6.952;2023-04-25T05:01:36;13.50;;;3.40;;
14754;SDS011;7469;50.906;6.952;2023-04-25T05:04:04;12.03;;;3.17;;
14754;SDS011;7469;50.906;6.952;2023-04-25T05:06:34;8.23;;;3.13;;
14754;SDS011;7469;50.906;6.952;2023-04-25T05:09:02;7.53;;;3.17;;
14754;SDS011;7469;50.906;6.952;2023-04-25T05:11:30;14.27;;;3.67;;
14754;SDS011;7469;50.906;6.952;2023-04-25T05:13:58;13.90;;;4.13;;
14754;SDS011;7469;50.906;6.952;2023-04-25T05:16:26;8.33;;;3.40;;
14754;SDS011;7469;50.906;6.952;2023-04-25T05:18:54;9.93;;;3.30;;
14754;SDS011;7469;50.906;6.952;2023-04-25T05:21:22;5.70;;;3.17;;
14754;SDS011;7469;50.906;6.952;2023-04-25T05:23:52;9.90;;;3.17;;
14754;SDS011;7469;50.906;6.952;2023-04-25T05:26:22;11.20;;;3.37;;
14754;SDS011;7469;50.906;6.952;2023-04-25T05:28:50;7.60;;;3.10;;
14754;SDS011;7469;50.906;6.952;2023-04-25T05:31:18;12.03;;;3.27;;
14754;SDS011;7469;50.906;6.952;2023-04-25T05:33:46;10.83;;;3.73;;
14754;SDS011;7469;50.906;6.952;2023-04-25T05:36:14;14.77;;;3.93;;
14754;SDS011;7469;50.906;6.952;2023-04-25T05:38:44;9.47;;;3.40;;
14754;SDS011;7469;50.906;6.952;2023-04-25T05:41:13;8.33;;;3.13;;
14754;SDS011;7469;50.906;6.952;2023-04-25T05:43:41;18.10;;;3.60;;
14754;SDS011;7469;50.906;6.952;2023-04-25T05:46:13;8.23;;;3.03;;
14754;SDS011;7469;50.906;6.952;2023-04-25T05:48:41;22.43;;;4.03;;
14754;SDS011;7469;50.906;6.952;2023-04-25T05:51:09;13.83;;;3.57;;
14754;SDS011;7469;50.906;6.952;2023-04-25T05:53:37;7.37;;;3.30;;
14754;SDS011;7469;50.906;6.952;2023-04-25T05:56:05;8.90;;;3.07;;
14754;SDS011;7469;50.906;6.952;2023-04-25T05:58:35;15.70;;;3.67;;
14754;SDS011;7469;50.906;6.952;2023-04-25T06:01:02;15.97;;;4.63;;
14754;SDS011;7469;50.906;6.952;2023-04-25T06:03:30;10.10;;;3.37;;
14754;SDS011;7469;50.906;6.952;2023-04-25T06:05:59;7.67;;;3.23;;
14754;SDS011;7469;50.906;6.952;2023-04-25T06:08:27;8.00;;;3.33;;
14754;SDS011;7469;50.906;6.952;2023-04-25T06:10:55;8.90;;;3.33;;
14754;SDS011;7469;50.906;6.952;2023-04-25T06:13:23;9.97;;;3.43;;
14754;SDS011;7469;50.906;6.952;2023-04-25T06:15:53;7.00;;;3.10;;
14754;SDS011;7469;50.906;6.952;2023-04-25T06:18:21;9.10;;;3.27;;
14754;SDS011;7469;50.906;6.952;2023-04-25T06:20:48;16.73;;;3.30;;
14754;SDS011;7469;50.906;6.952;2023-04-25T06:23:16;11.67;;;3.50;;
14754;SDS011;7469;50.906;6.952;2023-04-25T06:25:44;11.57;;;3.60;;
14754;SDS011;7469;50.906;6.952;2023-04-25T06:28:12;17.60;;;3.43;;
14754;SDS011;7469;50.906;6.952;2023-04-25T06:30:40;13.87;;;3.37;;
14754;SDS011;7469;50.906;6.952;2023-04-25T06:33:09;11.77;;;3.67;;
14754;SDS011;7469;50.906;6.952;2023-04-25T06:35:37;12.80;;;3.50;;
14754;SDS011;7469;50.906;6.952;2023-04-25T06:38:05;14.23;;;3.93;;
14754;SDS011;7469;50.906;6.952;2023-04-25T06:40:33;9.33;;;3.00;;
14754;SDS011;7469;50.906;6.952;2023-04-25T06:43:01;8.73;;;3.13;;
14754;SDS011;7469;50.906;6.952;2023-04-25T06:45:29;7.80;;;3.40;;
14754;SDS011;7469;50.906;6.952;2023-04-25T06:47:57;13.53;;;3.37;;
14754;SDS011;7469;50.906;6.952;2023-04-25T06:50:26;12.03;;;3.13;;
14754;SDS011;7469;50.906;6.952;2023-04-25T06:52:54;8.63;;;3.07;;
14754;SDS011;7469;50.906;6.952;2023-04-25T06:55:23;12.50;;;3.13;;
14754;SDS011;7469;50.906;6.952;2023-04-25T06:57:51;13.03;;;3.90;;
14754;SDS011;7469;50.906;6.952;2023-04-25T07:00:19;15.00;;;3.63;;
14754;SDS011;7469;50.906;6.952;2023-04-25T07:02:48;10.77;;;3.63;;
14754;SDS011;7469;50.906;6.952;2023-04-25T07:05:16;9.00;;;3.40;;
14754;SDS011;7469;50.906;6.952;2023-04-25T07:07:46;12.63;;;3.83;;
14754;SDS011;7469;50.906;6.952;2023-04-25T07:10:13;10.33;;;2.87;;
14754;SDS011;7469;50.906;6.952;2023-04-25T07:12:42;7.97;;;2.70;;
14754;SDS011;7469;50.906;6.952;2023-04-25T07:15:09;7.33;;;2.60;;
14754;SDS011;7469;50.906;6.952;2023-04-25T07:17:37;7.00;;;2.50;;
14754;SDS011;7469;50.906;6.952;2023-04-25T07:20:06;7.13;;;2.80;;
14754;SDS011;7469;50.906;6.952;2023-04-25T07:22:35;14.90;;;2.97;;
14754;SDS011;7469;50.906;6.952;2023-04-25T07:25:05;11.33;;;2.47;;
14754;SDS011;7469;50.906;6.952;2023-04-25T07:27:34;9.23;;;2.50;;
14754;SDS011;7469;50.906;6.952;2023-04-25T07:30:03;6.60;;;2.17;;
14754;SDS011;7469;50.906;6.952;2023-04-25T07:32:32;12.10;;;2.47;;
14754;SDS011;7469;50.906;6.952;2023-04-25T07:35:00;9.70;;;2.17;;
14754;SDS011;7469;50.906;6.952;2023-04-25T07:37:30;6.40;;;2.10;;
14754;SDS011;7469;50.906;6.952;2023-04-25T07:39:58;7.20;;;2.30;;
14754;SDS011;7469;50.906;6.952;2023-04-25T07:42:28;6.03;;;2.07;;
14754;SDS011;7469;50.906;6.952;2023-04-25T07:44:56;9.90;;;2.00;;
14754;SDS011;7469;50.906;6.952;2023-04-25T07:47:24;5.37;;;2.00;;
14754;SDS011;7469;50.906;6.952;2023-04-25T07:49:52;4.63;;;1.87;;
14754;SDS011;7469;50.906;6.952;2023-04-25T07:52:20;8.67;;;2.03;;
14754;SDS011;7469;50.906;6.952;2023-04-25T07:54:48;6.70;;;2.10;;
14754;SDS011;7469;50.906;6.952;2023-04-25T07:57:17;7.70;;;2.70;;
14754;SDS011;7469;50.906;6.952;2023-04-25T07:59:47;8.57;;;2.30;;
14754;SDS011;7469;50.906;6.952;2023-04-25T08:02:14;12.67;;;2.23;;
14754;SDS011;7469;50.906;6.952;2023-04-25T08:04:43;5.43;;;2.33;;
14754;SDS011;7469;50.906;6.952;2023-04-25T08:07:11;6.93;;;2.43;;
14754;SDS011;7469;50.906;6.952;2023-04-25T08:09:39;6.93;;;2.40;;
14754;SDS011;7469;50.906;6.952;2023-04-25T08:12:07;7.17;;;2.00;;
14754;SDS011;7469;50.906;6.952;2023-04-25T08:14:35;6.07;;;2.20;;
14754;SDS011;7469;50.906;6.952;2023-04-25T08:17:05;11.03;;;3.13;;
14754;SDS011;7469;50.906;6.952;2023-04-25T08:19:33;8.60;;;2.20;;
14754;SDS011;7469;50.906;6.952;2023-04-25T08:22:01;6.97;;;2.10;;
14754;SDS011;7469;50.906;6.952;2023-04-25T08:24:29;11.77;;;2.43;;
14754;SDS011;7469;50.906;6.952;2023-04-25T08:26:57;6.23;;;2.20;;
14754;SDS011;7469;50.906;6.952;2023-04-25T08:29:25;9.33;;;2.43;;
14754;SDS011;7469;50.906;6.952;2023-04-25T08:31:54;7.33;;;2.33;;
14754;SDS011;7469;50.906;6.952;2023-04-25T08:34:24;5.23;;;1.90;;
14754;SDS011;7469;50.906;6.952;2023-04-25T08:36:53;5.50;;;2.00;;
14754;SDS011;7469;50.906;6.952;2023-04-25T08:39:21;10.93;;;2.00;;
14754;SDS011;7469;50.906;6.952;2023-04-25T08:41:49;4.17;;;1.90;;
14754;SDS011;7469;50.906;6.952;2023-04-25T08:44:18;9.07;;;1.70;;
14754;SDS011;7469;50.906;6.952;2023-04-25T08:46:48;5.53;;;1.90;;
14754;SDS011;7469;50.906;6.952;2023-04-25T08:49:19;6.60;;;2.23;;
14754;SDS011;7469;50.906;6.952;2023-04-25T08:51:49;6.17;;;2.43;;
14754;SDS011;7469;50.906;6.952;2023-04-25T08:54:19;4.83;;;1.73;;
14754;SDS011;7469;50.906;6.952;2023-04-25T08:57:01;5.77;;;1.80;;
14754;SDS011;7469;50.906;6.952;2023-04-25T08:59:32;5.53;;;1.57;;
14754;SDS011;7469;50.906;6.952;2023-04-25T09:02:04;6.37;;;2.00;;
14754;SDS011;7469;50.906;6.952;2023-04-25T09:04:33;6.57;;;1.70;;
14754;SDS011;7469;50.906;6.952;2023-04-25T09:07:02;5.23;;;1.90;;
14754;SDS011;7469;50.906;6.952;2023-04-25T09:09:31;5.80;;;2.07;;
14754;SDS011;7469;50.906;6.952;2023-04-25T09:11:59;6.77;;;2.20;;
14754;SDS011;7469;50.906;6.952;2023-04-25T09:14:28;3.63;;;1.70;;
14754;SDS011;7469;50.906;6.952;2023-04-25T09:17:00;3.03;;;1.70;;
14754;SDS011;7469;50.906;6.952;2023-04-25T09:19:30;3.80;;;1.70;;
14754;SDS011;7469;50.906;6.952;2023-04-25T09:22:04;5.43;;;1.50;;
14754;SDS011;7469;50.906;6.952;2023-04-25T09:24:33;7.03;;;2.10;;
14754;SDS011;7469;50.906;6.952;2023-04-25T09:27:05;9.00;;;1.97;;
14754;SDS011;7469;50.906;6.952;2023-04-25T09:29:35;7.97;;;2.20;;
14754;SDS011;7469;50.906;6.952;2023-04-25T09:32:11;4.13;;;1.70;;
14754;SDS011;7469;50.906;6.952;2023-04-25T09:34:44;6.50;;;1.87;;
14754;SDS011;7469;50.906;6.952;2023-04-25T09:37:20;5.53;;;1.60;;
14754;SDS011;7469;50.906;6.952;2023-04-25T09:39:49;7.83;;;1.70;;
14754;SDS011;7469;50.906;6.952;2023-04-25T09:42:21;10.87;;;2.07;;
14754;SDS011;7469;50.906;6.952;2023-04-25T09:44:51;6.50;;;1.50;;
14754;SDS011;7469;50.906;6.952;2023-04-25T09:47:20;6.27;;;1.73;;
14754;SDS011;7469;50.906;6.952;2023-04-25T09:49:50;8.53;;;1.90;;
14754;SDS011;7469;50.906;6.952;2023-04-25T09:52:20;8.23;;;1.90;;
14754;SDS011;7469;50.906;6.952;2023-04-25T09:54:51;6.97;;;1.97;;
14754;SDS011;7469;50.906;6.952;2023-04-25T09:57:20;6.83;;;1.73;;
14754;SDS011;7469;50.906;6.952;2023-04-25T09:59:49;5.90;;;2.10;;
14754;SDS011;7469;50.906;6.952;2023-04-25T10:02:20;9.00;;;1.60;;
14754;SDS011;7469;50.906;6.952;2023-04-25T10:04:50;5.30;;;1.63;;
14754;SDS011;7469;50.906;6.952;2023-04-25T10:07:22;6.43;;;1.93;;
14754;SDS011;7469;50.906;6.952;2023-04-25T10:09:53;10.17;;;2.03;;
14754;SDS011;7469;50.906;6.952;2023-04-25T10:12:28;3.73;;;1.50;;
14754;SDS011;7469;50.906;6.952;2023-04-25T10:14:57;7.67;;;1.90;;
14754;SDS011;7469;50.906;6.952;2023-04-25T10:17:26;10.47;;;1.97;;
14754;SDS011;7469;50.906;6.952;2023-04-25T10:19:54;6.97;;;1.93;;
14754;SDS011;7469;50.906;6.952;2023-04-25T10:22:29;7.83;;;1.90;;
14754;SDS011;7469;50.906;6.952;2023-04-25T10:25:00;7.70;;;2.00;;
14754;SDS011;7469;50.906;6.952;2023-04-25T10:27:30;5.57;;;1.73;;
14754;SDS011;7469;50.906;6.952;2023-04-25T10:30:02;4.57;;;1.63;;
14754;SDS011;7469;50.906;6.952;2023-04-25T10:32:32;7.13;;;1.60;;
14754;SDS011;7469;50.906;6.952;2023-04-25T10:35:10;5.50;;;1.70;;
14754;SDS011;7469;50.906;6.952;2023-04-25T10:37:44;7.43;;;1.63;;
14754;SDS011;7469;50.906;6.952;2023-04-25T10:40:24;8.10;;;1.50;;
14754;SDS011;7469;50.906;6.952;2023-04-25T10:42:52;5.90;;;1.83;;
14754;SDS011;7469;50.906;6.952;2023-04-25T10:45:21;6.80;;;1.87;;
14754;SDS011;7469;50.906;6.952;2023-04-25T10:47:49;6.30;;;2.03;;
14754;SDS011;7469;50.906;6.952;2023-04-25T10:50:17;4.73;;;1.43;;
14754;SDS011;7469;50.906;6.952;2023-04-25T10:52:46;6.87;;;2.00;;
14754;SDS011;7469;50.906;6.952;2023-04-25T10:55:15;4.33;;;1.70;;
14754;SDS011;7469;50.906;6.952;2023-04-25T10:57:43;3.37;;;1.50;;
14754;SDS011;7469;50.906;6.952;2023-04-25T11:00:15;4.33;;;1.77;;
14754;SDS011;7469;50.906;6.952;2023-04-25T11:02:45;3.17;;;1.50;;
14754;SDS011;7469;50.906;6.952;2023-04-25T11:05:22;3.47;;;1.80;;
14754;SDS011;7469;50.906;6.952;2023-04-25T11:07:54;3.23;;;1.20;;
14754;SDS011;7469;50.906;6.952;2023-04-25T11:10:43;7.27;;;1.80;;
14754;SDS011;7469;50.906;6.952;2023-04-25T11:13:12;4.57;;;1.50;;
14754;SDS011;7469;50.906;6.952;2023-04-25T11:15:40;6.10;;;2.00;;
14754;SDS011;7469;50.906;6.952;2023-04-25T11:18:08;3.40;;;1.43;;
14754;SDS011;7469;50.906;6.952;2023-04-25T11:20:36;7.93;;;1.63;;
14754;SDS011;7469;50.906;6.952;2023-04-25T11:23:05;2.17;;;1.30;;
14754;SDS011;7469;50.906;6.952;2023-04-25T11:25:34;4.23;;;1.47;;
14754;SDS011;7469;50.906;6.952;2023-04-25T11:28:04;5.23;;;1.43;;
14754;SDS011;7469;50.906;6.952;2023-04-25T11:30:32;2.43;;;1.20;;
14754;SDS011;7469;50.906;6.952;2023-04-25T11:33:01;4.10;;;1.73;;
14754;SDS011;7469;50.906;6.952;2023-04-25T11:35:30;3.77;;;1.57;;
14754;SDS011;7469;50.906;6.952;2023-04-25T11:37:59;2.10;;;1.17;;
14754;SDS011;7469;50.906;6.952;2023-04-25T11:40:31;6.27;;;1.73;;
14754;SDS011;7469;50.906;6.952;2023-04-25T11:42:59;4.80;;;1.47;;
14754;SDS011;7469;50.906;6.952;2023-04-25T11:45:28;2.93;;;1.33;;
14754;SDS011;7469;50.906;6.952;2023-04-25T11:47:56;7.93;;;1.53;;
14754;SDS011;7469;50.906;6.952;2023-04-25T11:50:25;9.13;;;2.00;;
14754;SDS011;7469;50.906;6.952;2023-04-25T11:52:56;5.97;;;1.60;;
14754;SDS011;7469;50.906;6.952;2023-04-25T11:55:24;5.83;;;1.80;;
14754;SDS011;7469;50.906;6.952;2023-04-25T11:57:54;5.53;;;1.80;;
14754;SDS011;7469;50.906;6.952;2023-04-25T12:00:22;6.47;;;1.83;;
14754;SDS011;7469;50.906;6.952;2023-04-25T12:02:51;4.80;;;1.40;;
14754;SDS011;7469;50.906;6.952;2023-04-25T12:05:23;2.00;;;1.20;;
14754;SDS011;7469;50.906;6.952;2023-04-25T12:08:09;3.83;;;1.07;;
14754;SDS011;7469;50.906;6.952;2023-04-25T12:10:39;4.87;;;1.30;;
14754;SDS011;7469;50.906;6.952;2023-04-25T12:13:21;3.00;;;1.20;;
14754;SDS011;7469;50.906;6.952;2023-04-25T12:15:49;2.40;;;1.20;;
14754;SDS011;7469;50.906;6.952;2023-04-25T12:18:22;3.50;;;1.30;;
14754;SDS011;7469;50.906;6.952;2023-04-25T12:20:52;2.63;;;0.93;;
14754;SDS011;7469;50.906;6.952;2023-04-25T12:23:25;2.60;;;1.27;;
14754;SDS011;7469;50.906;6.952;2023-04-25T12:25:54;3.33;;;1.10;;
14754;SDS011;7469;50.906;6.952;2023-04-25T12:28:25;5.17;;;1.50;;
14754;SDS011;7469;50.906;6.952;2023-04-25T12:30:55;5.83;;;1.47;;
14754;SDS011;7469;50.906;6.952;2023-04-25T12:33:24;1.70;;;1.27;;
14754;SDS011;7469;50.906;6.952;2023-04-25T12:35:53;5.93;;;1.47;;
14754;SDS011;7469;50.906;6.952;2023-04-25T12:38:21;4.00;;;1.40;;
14754;SDS011;7469;50.906;6.952;2023-04-25T12:40:50;4.40;;;1.43;;
14754;SDS011;7469;50.906;6.952;2023-04-25T12:43:18;4.20;;;1.10;;
14754;SDS011;7469;50.906;6.952;2023-04-25T12:45:48;4.23;;;1.90;;
14754;SDS011;7469;50.906;6.952;2023-04-25T12:48:17;5.23;;;1.40;;
14754;SDS011;7469;50.906;6.952;2023-04-25T12:50:45;2.80;;;1.30;;
14754;SDS011;7469;50.906;6.952;2023-04-25T12:53:16;3.23;;;1.40;;
14754;SDS011;7469;50.906;6.952;2023-04-25T12:55:44;4.97;;;1.30;;
14754;SDS011;7469;50.906;6.952;2023-04-25T12:58:13;5.20;;;1.57;;
14754;SDS011;7469;50.906;6.952;2023-04-25T13:00:41;4.47;;;1.27;;
14754;SDS011;7469;50.906;6.952;2023-04-25T13:03:10;4.30;;;1.20;;
14754;SDS011;7469;50.906;6.952;2023-04-25T13:05:39;6.57;;;2.07;;
14754;SDS011;7469;50.906;6.952;2023-04-25T13:08:07;2.80;;;1.30;;
14754;SDS011;7469;50.906;6.952;2023-04-25T13:10:38;3.77;;;1.37;;
14754;SDS011;7469;50.906;6.952;2023-04-25T13:13:06;2.13;;;1.20;;
14754;SDS011;7469;50.906;6.952;2023-04-25T13:15:34;3.47;;;0.87;;
14754;SDS011;7469;50.906;6.952;2023-04-25T13:18:02;3.27;;;1.43;;
14754;SDS011;7469;50.906;6.952;2023-04-25T13:20:33;3.07;;;1.50;;
14754;SDS011;7469;50.906;6.952;2023-04-25T13:23:01;5.83;;;1.33;;
14754;SDS011;7469;50.906;6.952;2023-04-25T13:25:29;2.63;;;1.40;;
14754;SDS011;7469;50.906;6.952;2023-04-25T13:27:57;5.23;;;1.60;;
14754;SDS011;7469;50.906;6.952;2023-04-25T13:30:25;2.53;;;1.27;;
14754;SDS011;7469;50.906;6.952;2023-04-25T13:32:53;4.53;;;1.10;;
14754;SDS011;7469;50.906;6.952;2023-04-25T13:35:23;2.33;;;1.20;;
14754;SDS011;7469;50.906;6.952;2023-04-25T13:37:52;5.83;;;1.30;;
14754;SDS011;7469;50.906;6.952;2023-04-25T13:40:20;4.10;;;1.30;;
14754;SDS011;7469;50.906;6.952;2023-04-25T13:42:51;1.77;;;1.00;;
14754;SDS011;7469;50.906;6.952;2023-04-25T13:45:18;5.03;;;0.97;;
14754;SDS011;7469;50.906;6.952;2023-04-25T13:47:47;3.10;;;1.30;;
14754;SDS011;7469;50.906;6.952;2023-04-25T13:50:15;1.47;;;1.13;;
14754;SDS011;7469;50.906;6.952;2023-04-25T13:52:44;2.40;;;1.30;;
14754;SDS011;7469;50.906;6.952;2023-04-25T13:55:13;3.33;;;1.00;;
14754;SDS011;7469;50.906;6.952;2023-04-25T13:57:41;1.50;;;1.20;;
14754;SDS011;7469;50.906;6.952;2023-04-25T14:00:10;2.00;;;1.30;;
14754;SDS011;7469;50.906;6.952;2023-04-25T14:02:39;1.47;;;0.87;;
14754;SDS011;7469;50.906;6.952;2023-04-25T14:05:07;1.33;;;0.90;;
14754;SDS011;7469;50.906;6.952;2023-04-25T14:07:36;4.30;;;1.20;;
14754;SDS011;7469;50.906;6.952;2023-04-25T14:10:04;1.47;;;0.90;;
14754;SDS011;7469;50.906;6.952;2023-04-25T14:12:34;2.83;;;1.17;;
14754;SDS011;7469;50.906;6.952;2023-04-25T14:15:02;2.20;;;0.93;;
14754;SDS011;7469;50.906;6.952;2023-04-25T14:17:31;6.07;;;1.63;;
14754;SDS011;7469;50.906;6.952;2023-04-25T14:19:59;2.93;;;1.30;;
14754;SDS011;7469;50.906;6.952;2023-04-25T14:22:27;1.53;;;0.77;;
14754;SDS011;7469;50.906;6.952;2023-04-25T14:24:55;1.60;;;1.30;;
14754;SDS011;7469;50.906;6.952;2023-04-25T14:27:22;1.77;;;1.20;;
14754;SDS011;7469;50.906;6.952;2023-04-25T14:29:55;3.00;;;0.97;;
14754;SDS011;7469;50.906;6.952;2023-04-25T14:32:23;3.20;;;1.53;;
14754;SDS011;7469;50.906;6.952;2023-04-25T14:34:51;2.40;;;1.10;;
14754;SDS011;7469;50.906;6.952;2023-04-25T14:37:19;0.73;;;0.70;;
14754;SDS011;7469;50.906;6.952;2023-04-25T14:39:47;2.60;;;1.00;;
14754;SDS011;7469;50.906;6.952;2023-04-25T14:42:15;3.73;;;1.10;;
14754;SDS011;7469;50.906;6.952;2023-04-25T14:44:43;3.90;;;0.80;;
14754;SDS011;7469;50.906;6.952;2023-04-25T14:47:13;1.53;;;1.00;;
14754;SDS011;7469;50.906;6.952;2023-04-25T14:49:41;2.77;;;0.93;;
14754;SDS011;7469;50.906;6.952;2023-04-25T14:52:09;2.00;;;0.73;;
14754;SDS011;7469;50.906;6.952;2023-04-25T14:54:37;1.60;;;0.70;;
14754;SDS011;7469;50.906;6.952;2023-04-25T14:57:05;3.33;;;0.80;;
14754;SDS011;7469;50.906;6.952;2023-04-25T14:59:33;2.77;;;1.10;;
14754;SDS011;7469;50.906;6.952;2023-04-25T15:02:01;2.93;;;1.10;;
14754;SDS011;7469;50.906;6.952;2023-04-25T15:04:31;4.10;;;1.00;;
14754;SDS011;7469;50.906;6.952;2023-04-25T15:07:00;4.00;;;1.10;;
14754;SDS011;7469;50.906;6.952;2023-04-25T15:09:27;4.20;;;1.20;;